Time;durP1;ratioP1;P1;durP2;ratioP2;P2;SDS_P1;SDS_P2;PMS_P1;PMS_P2;Temp;Humidity;BMP_temperature;BMP_pressure;BME280_temperature;BME280_humidity;BME280_pressure;Samples;Min_cycle;Max_cycle;Signal;HPM_P1;HPM_P2
2022/09/19 00:00:42;;;;;;;1.83;0.98;;;;;;;14.12;90.72;101369.44;5090569;28;20484;-87
2022/09/19 00:03:08;;;;;;;1.02;0.80;;;;;;;14.07;91.42;101372.41;5091525;28;20106;-87
2022/09/19 00:05:38;;;;;;;2.28;1.10;;;;;;;14.07;91.63;101373.22;5091132;28;20116;-87
2022/09/19 00:08:03;;;;;;;1.58;1.08;;;;;;;13.98;92.80;101359.78;5090293;28;20032;-87
2022/09/19 00:10:29;;;;;;;1.35;0.95;;;;;;;14.02;91.58;101374.47;5090753;28;20020;-87
2022/09/19 00:12:55;;;;;;;1.48;1.08;;;;;;;13.95;91.98;101378.50;5090278;28;20056;-87
2022/09/19 00:15:22;;;;;;;0.88;0.70;;;;;;;13.92;92.10;101379.56;5091285;28;20028;-87
2022/09/19 00:17:49;;;;;;;2.03;0.98;;;;;;;13.79;92.36;101376.03;5087246;28;20431;-87
2022/09/19 00:20:15;;;;;;;2.28;1.00;;;;;;;13.75;93.27;101372.75;5090692;28;20107;-87
2022/09/19 00:24:45;;;;;;;1.17;0.75;;;;;;;13.75;92.20;101370.09;5090725;28;20111;-87
2022/09/19 00:25:25;;;;;;;1.88;0.75;;;;;;;13.77;92.61;101372.66;5090839;28;20481;-87
2022/09/19 00:27:50;;;;;;;1.50;0.85;;;;;;;13.80;92.38;101369.78;5089559;28;20103;-87
2022/09/19 00:30:16;;;;;;;1.23;0.88;;;;;;;13.76;92.10;101369.16;5090915;28;20112;-86
2022/09/19 00:32:41;;;;;;;2.67;1.05;;;;;;;13.73;92.44;101368.53;5090800;28;20052;-87
2022/09/19 00:35:08;;;;;;;1.23;0.73;;;;;;;13.66;93.22;101362.78;5090818;28;20474;-87
2022/09/19 00:37:33;;;;;;;3.63;0.82;;;;;;;13.68;94.30;101360.88;5089535;28;20503;-87
2022/09/19 00:39:58;;;;;;;0.75;0.60;;;;;;;13.75;93.44;101366.63;5090461;28;20062;-87
2022/09/19 00:42:25;;;;;;;1.58;0.73;;;;;;;13.83;93.02;101365.16;5090616;28;20027;-87
2022/09/19 00:45:03;;;;;;;1.77;0.80;;;;;;;13.88;93.24;101367.50;5090718;28;20023;-87
2022/09/19 00:47:35;;;;;;;1.65;0.88;;;;;;;13.82;93.10;101359.97;5090028;28;20610;-87
2022/09/19 00:50:05;;;;;;;2.03;1.10;;;;;;;13.82;92.79;101367.91;5092191;28;20169;-87
2022/09/19 00:52:39;;;;;;;1.25;0.90;;;;;;;13.77;92.72;101365.56;5092810;28;20024;-87
2022/09/19 00:55:04;;;;;;;1.25;1.00;;;;;;;13.66;92.56;101374.22;5094446;28;20121;-87
2022/09/19 00:57:40;;;;;;;1.13;0.68;;;;;;;13.66;92.94;101368.06;5094154;28;20537;-86
2022/09/19 01:00:06;;;;;;;1.02;0.77;;;;;;;13.59;92.48;101366.78;5094112;28;20028;-87
2022/09/19 01:02:32;;;;;;;1.10;0.80;;;;;;;13.57;92.84;101371.31;5092088;28;20032;-87
2022/09/19 01:04:59;;;;;;;1.42;0.80;;;;;;;13.49;92.43;101361.28;5093711;28;20016;-87
2022/09/19 01:08:12;;;;;;;1.52;0.70;;;;;;;13.55;93.14;101368.78;5094347;28;20020;-87
2022/09/19 01:10:40;;;;;;;2.25;1.00;;;;;;;13.54;93.02;101376.78;5087332;28;20036;-86
2022/09/19 01:13:11;;;;;;;1.30;0.77;;;;;;;13.50;92.80;101373.50;5094390;28;20037;-87
2022/09/19 01:15:42;;;;;;;1.15;0.98;;;;;;;13.48;93.08;101386.78;5094694;28;20103;-87
2022/09/19 01:18:08;;;;;;;1.25;0.88;;;;;;;13.45;93.06;101383.53;5094232;28;20031;-87
2022/09/19 01:20:43;;;;;;;4.90;0.80;;;;;;;13.34;93.61;101363.09;5093823;28;20020;-87
2022/09/19 01:23:36;;;;;;;2.88;1.05;;;;;;;13.36;92.89;101376.19;5088940;28;20102;-87
2022/09/19 01:26:23;;;;;;;1.45;0.65;;;;;;;13.30;92.84;101374.78;5092533;28;20036;-87
2022/09/19 01:29:07;;;;;;;2.42;0.75;;;;;;;13.29;93.52;101362.53;5098716;28;20490;-87
2022/09/19 01:31:38;;;;;;;1.02;0.70;;;;;;;13.28;93.56;101369.56;5072510;28;20028;-87
2022/09/19 01:34:26;;;;;;;2.67;0.80;;;;;;;13.28;93.71;101369.56;5092118;28;20020;-87
2022/09/19 01:37:12;;;;;;;2.45;0.85;;;;;;;13.12;94.24;101373.28;5098886;28;20415;-87
2022/09/19 01:39:41;;;;;;;1.60;0.90;;;;;;;12.95;94.24;101364.63;5093061;28;20054;-87
2022/09/19 01:42:10;;;;;;;2.80;1.10;;;;;;;13.19;93.79;101364.91;5090262;28;20063;-87
2022/09/19 01:44:36;;;;;;;3.03;1.05;;;;;;;13.33;93.24;101366.69;5094029;28;20137;-87
2022/09/19 01:47:27;;;;;;;3.28;1.00;;;;;;;13.12;94.71;101371.50;5093327;28;20155;-87
2022/09/19 01:50:14;;;;;;;1.15;0.90;;;;;;;12.99;93.33;101363.50;5083488;28;20374;-87
2022/09/19 01:53:19;;;;;;;2.80;0.80;;;;;;;12.95;93.91;101369.06;5093475;28;20028;-87
2022/09/19 01:56:06;;;;;;;1.98;1.00;;;;;;;13.05;93.66;101362.28;5093287;28;20032;-87
2022/09/19 01:58:38;;;;;;;1.23;0.80;;;;;;;13.03;94.58;101370.31;5073406;28;20029;-88
2022/09/19 02:01:33;;;;;;;1.92;0.70;;;;;;;12.96;95.21;101368.16;5089115;28;20032;-87
2022/09/19 02:04:11;;;;;;;1.38;0.90;;;;;;;12.96;95.36;101368.97;5084159;28;20024;-87
2022/09/19 02:06:48;;;;;;;2.17;0.90;;;;;;;13.06;94.89;101370.09;5093354;28;20136;-87
2022/09/19 02:09:34;;;;;;;1.20;1.02;;;;;;;13.08;94.86;101365.56;5091099;28;20039;-87
2022/09/19 02:12:01;;;;;;;2.20;1.02;;;;;;;12.89;95.55;101362.38;5092233;28;20425;-87
2022/09/19 02:14:30;;;;;;;0.93;0.70;;;;;;;12.89;96.22;101367.66;5093230;28;20024;-87
2022/09/19 02:17:03;;;;;;;1.80;0.90;;;;;;;12.87;96.03;101359.88;5092675;28;20065;-86
2022/09/19 02:19:39;;;;;;;2.25;1.00;;;;;;;12.84;97.35;101365.31;5093270;28;20032;-87
2022/09/19 02:22:10;;;;;;;0.65;0.65;;;;;;;12.97;96.04;101362.75;5092664;28;20024;-87
2022/09/19 02:24:40;;;;;;;0.95;0.60;;;;;;;13.01;95.58;101361.66;5092729;28;20038;-87
2022/09/19 02:27:16;;;;;;;1.15;0.82;;;;;;;12.83;96.97;101363.63;5092950;28;20086;-87
2022/09/19 02:29:48;;;;;;;1.40;0.77;;;;;;;12.98;95.71;101359.19;5092423;28;20118;-87
2022/09/19 02:32:17;;;;;;;1.40;0.80;;;;;;;12.73;99.11;101356.38;5092524;28;20482;-87
2022/09/19 02:34:43;;;;;;;0.90;0.70;;;;;;;12.99;97.09;101357.38;5093146;28;20021;-86
2022/09/19 02:37:19;;;;;;;2.00;1.02;;;;;;;13.06;97.07;101350.78;5093059;28;20021;-86
2022/09/19 02:40:08;;;;;;;2.15;0.90;;;;;;;13.13;96.42;101349.47;5092712;28;20020;-86
2022/09/19 02:42:52;;;;;;;2.17;1.05;;;;;;;13.07;96.41;101353.34;5091335;28;20039;-87
2022/09/19 02:45:29;;;;;;;2.42;0.90;;;;;;;13.10;95.95;101357.56;5092157;28;20434;-87
2022/09/19 02:48:03;;;;;;;2.03;0.82;;;;;;;13.05;95.91;101357.88;5092730;28;20024;-87
2022/09/19 02:51:07;;;;;;;2.78;0.63;;;;;;;13.06;96.12;101351.63;5092476;28;20027;-87
2022/09/19 02:53:42;;;;;;;1.42;0.70;;;;;;;13.06;95.98;101351.63;5029372;28;20032;-87
2022/09/19 02:56:13;;;;;;;2.25;1.00;;;;;;;13.06;97.24;101354.28;5087826;28;20138;-87
2022/09/19 02:58:47;;;;;;;2.28;1.10;;;;;;;13.07;96.67;101353.34;5094938;28;20028;-87
2022/09/19 03:01:20;;;;;;;2.55;0.70;;;;;;;13.06;97.16;101356.91;5092226;28;20043;-87
2022/09/19 03:04:12;;;;;;;0.85;0.80;;;;;;;13.14;96.65;101352.94;5090400;28;20402;-86
2022/09/19 03:07:22;;;;;;;1.00;0.90;;;;;;;13.07;96.83;101355.97;5081435;28;20024;-87
2022/09/19 03:10:10;;;;;;;1.33;0.90;;;;;;;13.03;96.55;101359.75;5090406;28;20047;-87
2022/09/19 03:12:50;;;;;;;1.52;1.05;;;;;;;12.93;96.18;101361.25;5092166;28;20220;-87
2022/09/19 03:15:20;;;;;;;0.88;0.70;;;;;;;12.96;96.74;101365.50;5090626;28;20028;-87
2022/09/19 03:17:49;;;;;;;2.33;0.70;;;;;;;13.00;95.67;101362.56;5091641;28;20020;-87
2022/09/19 03:20:16;;;;;;;1.25;1.00;;;;;;;12.95;96.47;101367.28;5092258;28;20111;-87
2022/09/19 03:22:42;;;;;;;0.95;0.88;;;;;;;12.95;96.02;101366.44;5092088;28;20085;-86
2022/09/19 03:25:09;;;;;;;1.00;0.90;;;;;;;12.91;96.70;101371.03;5091582;28;20039;-87
2022/09/19 03:27:36;;;;;;;1.60;0.88;;;;;;;12.86;96.83;101367.88;5091925;28;20130;-87
2022/09/19 03:30:04;;;;;;;2.05;0.73;;;;;;;12.88;96.36;101366.81;5092282;28;20016;-87
2022/09/19 03:32:30;;;;;;;2.17;0.98;;;;;;;12.83;96.00;101366.25;5091174;28;20073;-87
2022/09/19 03:34:55;;;;;;;1.75;0.70;;;;;;;12.65;95.90;101365.59;5091656;28;20024;-87
2022/09/19 03:37:21;;;;;;;2.00;1.00;;;;;;;12.70;96.51;101362.69;5091286;28;20036;-87
2022/09/19 03:39:47;;;;;;;1.58;0.75;;;;;;;12.63;96.29;101364.84;5091153;28;20274;-87
2022/09/19 03:42:13;;;;;;;0.77;0.60;;;;;;;12.57;96.10;101367.88;5090523;28;20027;-87
2022/09/19 03:44:39;;;;;;;1.63;0.70;;;;;;;12.50;96.71;101375.31;5090962;28;20027;-87
2022/09/19 03:47:04;;;;;;;1.52;0.80;;;;;;;12.53;96.69;101369.00;5090767;28;20043;-86
2022/09/19 03:49:30;;;;;;;2.83;1.17;;;;;;;12.57;96.43;101372.28;5090612;28;20031;-87
2022/09/19 03:51:57;;;;;;;1.38;0.65;;;;;;;12.60;96.36;101374.72;5090842;28;20063;-87
2022/09/19 03:54:22;;;;;;;1.00;0.80;;;;;;;12.62;96.33;101380.78;5093675;28;20017;-87
2022/09/19 03:56:48;;;;;;;2.03;0.60;;;;;;;12.58;96.58;101380.09;5102006;28;20036;-87
2022/09/19 03:59:13;;;;;;;1.48;0.68;;;;;;;12.51;96.38;101362.97;5091078;28;20393;-86
2022/09/19 04:01:38;;;;;;;0.97;0.80;;;;;;;12.52;96.62;101380.47;5090712;28;20117;-86
2022/09/19 04:04:04;;;;;;;1.42;0.70;;;;;;;12.47;95.86;101374.63;5090890;28;20494;-86
2022/09/19 04:06:30;;;;;;;0.85;0.60;;;;;;;12.41;96.90;101372.38;5090487;28;20020;-87
2022/09/19 04:08:55;;;;;;;1.33;0.60;;;;;;;12.26;97.31;101376.75;5090757;28;20497;-87
2022/09/19 04:11:20;;;;;;;3.72;0.82;;;;;;;12.13;98.73;101376.66;5090725;28;20074;-87
2022/09/19 04:13:48;;;;;;;2.90;1.00;;;;;;;12.24;97.70;101370.72;5089247;28;20093;-87
2022/09/19 04:16:15;;;;;;;2.92;0.82;;;;;;;12.32;97.25;101379.03;5090454;28;20469;-86
2022/09/19 04:18:46;;;;;;;0.93;0.60;;;;;;;12.35;96.96;101378.84;5090665;28;20020;-86
2022/09/19 04:21:11;;;;;;;0.82;0.75;;;;;;;12.35;97.61;101381.47;5089218;28;20028;-87
2022/09/19 04:23:36;;;;;;;2.58;0.95;;;;;;;12.31;97.36;101382.59;5089104;28;20522;-87
2022/09/19 04:26:05;;;;;;;0.70;0.60;;;;;;;12.36;97.31;101377.06;5094162;28;20024;-87
2022/09/19 04:28:31;;;;;;;3.70;0.63;;;;;;;12.20;98.73;101388.50;5094243;28;20115;-87
2022/09/19 04:30:56;;;;;;;1.92;0.80;;;;;;;12.36;98.31;101384.97;5093279;28;20132;-87
2022/09/19 04:33:22;;;;;;;1.95;0.90;;;;;;;12.40;98.17;101387.34;5093035;28;20386;-87
2022/09/19 04:35:47;;;;;;;0.88;0.63;;;;;;;12.38;99.50;101388.34;5094288;28;20035;-87
2022/09/19 04:38:17;;;;;;;3.05;1.00;;;;;;;12.45;98.95;101384.41;5094587;28;20024;-86
2022/09/19 04:40:45;;;;;;;1.40;1.00;;;;;;;12.52;98.97;101387.50;5095159;28;20051;-87
2022/09/19 04:43:13;;;;;;;2.13;1.17;;;;;;;12.53;99.09;101384.78;5094737;28;20039;-87
2022/09/19 04:45:40;;;;;;;3.30;1.00;;;;;;;12.49;99.08;101386.75;5095152;28;20034;-86
2022/09/19 04:48:06;;;;;;;1.50;1.00;;;;;;;12.47;99.11;101382.53;5110610;28;20024;-87
2022/09/19 04:50:33;;;;;;;2.22;1.48;;;;;;;12.40;99.76;101389.09;5094955;28;20034;-87
2022/09/19 04:52:58;;;;;;;1.52;1.15;;;;;;;12.35;99.83;101392.03;5093897;28;20039;-87
2022/09/19 04:55:25;;;;;;;1.48;1.23;;;;;;;12.41;99.20;101393.44;5094891;28;20016;-87
2022/09/19 04:57:51;;;;;;;2.08;1.23;;;;;;;12.46;99.17;101386.09;5094847;28;20027;-87
2022/09/19 05:00:36;;;;;;;1.20;0.85;;;;;;;12.53;100.00;101387.44;5101579;28;20035;-87
2022/09/19 05:03:07;;;;;;;3.65;1.08;;;;;;;12.68;99.31;101390.94;5092634;28;20035;-87
2022/09/19 05:05:36;;;;;;;1.45;1.23;;;;;;;12.68;98.95;101386.50;5094459;28;20051;-86
2022/09/19 05:08:04;;;;;;;2.35;1.52;;;;;;;12.84;99.30;101390.84;5094351;28;20081;-87
2022/09/19 05:10:31;;;;;;;1.58;1.02;;;;;;;12.86;99.58;101383.69;5093766;28;20028;-87
2022/09/19 05:12:56;;;;;;;1.52;1.10;;;;;;;12.95;99.56;101388.38;5094334;28;20048;-87
2022/09/19 05:15:23;;;;;;;3.28;1.10;;;;;;;13.05;100.00;101386.00;5094001;28;20052;-87
2022/09/19 05:17:52;;;;;;;1.52;1.00;;;;;;;13.22;99.77;101391.06;5093891;28;20031;-87
2022/09/19 05:20:19;;;;;;;1.77;0.90;;;;;;;13.36;99.66;101400.75;5094460;28;20024;-86
2022/09/19 05:22:44;;;;;;;1.10;0.88;;;;;;;13.51;99.79;101401.59;5093453;28;20024;-86
2022/09/19 05:25:10;;;;;;;1.17;1.08;;;;;;;13.63;100.00;101399.94;5098727;28;20065;-87
2022/09/19 05:27:36;;;;;;;1.65;0.80;;;;;;;13.70;99.69;101398.59;5093721;28;20092;-87
2022/09/19 05:30:03;;;;;;;1.10;0.95;;;;;;;13.83;99.96;101391.56;5092362;28;20020;-86
2022/09/19 05:32:29;;;;;;;3.20;1.00;;;;;;;13.86;99.73;101396.66;5093733;28;20103;-87
2022/09/19 05:34:56;;;;;;;1.63;1.10;;;;;;;13.95;100.00;101397.00;5093352;28;20095;-87
2022/09/19 05:37:22;;;;;;;3.10;0.85;;;;;;;14.06;99.22;101405.88;5093939;28;20355;-87
2022/09/19 05:39:48;;;;;;;1.65;1.10;;;;;;;14.04;98.27;101405.16;5093111;28;20157;-87
2022/09/19 05:42:13;;;;;;;2.65;1.20;;;;;;;13.99;96.93;101399.31;5093991;28;20032;-87
2022/09/19 05:44:39;;;;;;;1.67;1.00;;;;;;;14.03;97.81;101399.97;5093149;28;20024;-87
2022/09/19 05:47:04;;;;;;;2.58;1.42;;;;;;;14.11;97.31;101400.28;5093726;28;20020;-87
2022/09/19 05:49:30;;;;;;;2.10;1.30;;;;;;;14.09;97.58;101402.19;5093501;28;20046;-87
2022/09/19 05:51:56;;;;;;;1.63;1.13;;;;;;;13.99;97.74;101407.22;5093323;28;20016;-87
2022/09/19 05:54:21;;;;;;;2.00;1.10;;;;;;;13.96;98.44;101404.81;5093853;28;20052;-87
2022/09/19 05:56:50;;;;;;;1.73;1.00;;;;;;;14.04;97.81;101406.91;5093123;28;20066;-87
2022/09/19 05:59:15;;;;;;;3.88;1.13;;;;;;;14.11;97.37;101407.38;5092803;28;20055;-86
2022/09/19 06:01:41;;;;;;;2.08;1.10;;;;;;;14.13;96.95;101411.59;5093196;28;20136;-87
2022/09/19 06:04:07;;;;;;;1.67;1.00;;;;;;;14.17;97.21;101410.44;5093855;28;20031;-87
2022/09/19 06:06:35;;;;;;;2.88;1.40;;;;;;;14.14;97.28;101407.16;5092145;28;20493;-86
2022/09/19 06:09:01;;;;;;;1.67;1.10;;;;;;;14.21;96.06;101406.63;5092091;28;20024;-87
2022/09/19 06:11:27;;;;;;;1.88;1.20;;;;;;;14.12;96.06;101407.28;5091366;28;20020;-87
2022/09/19 06:16:37;;;;;;;3.80;1.50;;;;;;;14.13;96.13;101411.59;5072951;28;20048;-88
2022/09/19 06:19:02;;;;;;;1.70;1.25;;;;;;;14.23;96.96;101414.47;5084483;28;20343;-87
2022/09/19 06:21:31;;;;;;;1.83;1.20;;;;;;;14.24;97.70;101419.66;5092765;28;20036;-87
2022/09/19 06:23:57;;;;;;;2.22;0.98;;;;;;;14.38;96.35;101417.88;5092830;28;20028;-86
2022/09/19 06:26:22;;;;;;;2.72;1.42;;;;;;;14.51;95.75;101420.53;5092541;28;20031;-86
2022/09/19 06:28:48;;;;;;;1.20;1.00;;;;;;;14.56;94.92;101421.94;5090270;28;20028;-87
2022/09/19 06:31:13;;;;;;;3.20;1.27;;;;;;;14.60;94.96;101423.41;5092898;28;20492;-87
2022/09/19 06:33:41;;;;;;;1.33;1.02;;;;;;;14.63;95.14;101423.22;5091703;28;20508;-87
2022/09/19 06:36:06;;;;;;;3.15;1.45;;;;;;;14.73;95.06;101419.91;5098188;28;20024;-87
2022/09/19 06:38:32;;;;;;;2.50;1.25;;;;;;;14.83;94.84;101428.88;5113019;28;20015;-87
2022/09/19 06:40:58;;;;;;;1.60;1.10;;;;;;;14.91;94.93;101426.59;5093694;28;20024;-87
2022/09/19 06:43:24;;;;;;;3.88;1.35;;;;;;;15.06;95.14;101425.47;5091444;28;20054;-87
2022/09/19 06:45:52;;;;;;;3.30;1.13;;;;;;;15.21;93.34;101430.66;5092091;28;20024;-87
2022/09/19 06:48:18;;;;;;;2.45;1.13;;;;;;;15.32;95.08;101430.72;5091885;28;20343;-87
2022/09/19 06:50:46;;;;;;;3.22;1.40;;;;;;;15.48;94.12;101443.69;5092520;28;20035;-87
2022/09/19 06:53:12;;;;;;;2.45;1.27;;;;;;;15.69;93.39;101432.53;5091806;28;20031;-87
2022/09/19 06:55:37;;;;;;;1.55;1.30;;;;;;;15.89;93.77;101434.56;5091960;28;20028;-88
2022/09/19 06:58:04;;;;;;;1.98;1.10;;;;;;;16.10;93.65;101436.59;5091243;28;20020;-87
2022/09/19 07:00:32;;;;;;;1.65;0.90;;;;;;;16.28;92.15;101435.19;5091304;28;20489;-87
2022/09/19 07:03:00;;;;;;;1.63;0.95;;;;;;;16.42;93.27;101437.63;5091773;28;20123;-87
2022/09/19 07:05:27;;;;;;;4.28;1.10;;;;;;;16.54;92.63;101435.84;5091469;28;20032;-87
2022/09/19 07:07:52;;;;;;;1.45;0.80;;;;;;;16.65;92.12;101440.34;5091842;28;20027;-87
2022/09/19 07:10:19;;;;;;;3.53;1.75;;;;;;;16.47;89.15;101450.56;5092095;28;20024;-88
2022/09/19 07:13:01;;;;;;;2.13;1.25;;;;;;;16.61;88.36;101442.38;5091017;28;20522;-88
2022/09/19 07:15:35;;;;;;;2.90;1.77;;;;;;;16.81;89.36;101442.66;5091979;28;20031;-88
2022/09/19 07:18:01;;;;;;;2.00;1.40;;;;;;;16.90;87.50;101446.41;5091681;28;20466;-88
2022/09/19 07:20:28;;;;;;;3.25;2.13;;;;;;;17.11;85.48;101446.53;5091548;28;20058;-88
2022/09/19 07:22:58;;;;;;;4.65;1.27;;;;;;;17.19;86.34;101437.00;5092273;28;20121;-88
2022/09/19 07:25:24;;;;;;;2.22;1.23;;;;;;;17.23;84.60;101430.47;5091437;28;20495;-88
2022/09/19 07:28:01;;;;;;;1.52;1.40;;;;;;;17.41;84.79;101441.44;5090181;28;20055;-87
2022/09/19 07:30:28;;;;;;;2.78;1.27;;;;;;;17.38;83.70;101441.69;5091672;28;20438;-88
2022/09/19 07:32:57;;;;;;;1.77;1.20;;;;;;;17.53;85.46;101438.75;5090933;28;20194;-89
2022/09/19 07:35:25;;;;;;;1.98;1.05;;;;;;;17.70;85.27;101443.53;5091792;28;20027;-88
2022/09/19 07:37:50;;;;;;;2.38;1.20;;;;;;;17.89;85.11;101450.03;5091794;28;20028;-86
2022/09/19 07:40:16;;;;;;;;;;;;;;;17.95;85.00;101452.19;5091962;28;20034;-86
2022/09/19 07:42:41;;;;;;;2.05;1.50;;;;;;;17.67;84.34;101456.22;5088415;28;19916;-87
2022/09/19 07:45:07;;;;;;;1.80;1.40;;;;;;;17.76;82.68;101456.31;5091135;28;20486;-88
2022/09/19 07:47:32;;;;;;;2.85;1.60;;;;;;;17.55;84.31;101460.72;5091517;28;20103;-87
2022/09/19 07:49:58;;;;;;;1.85;1.55;;;;;;;17.68;83.98;101458.75;5091813;28;20103;-88
2022/09/19 07:52:23;;;;;;;2.60;1.30;;;;;;;17.87;84.06;101454.63;5090148;28;20032;-88
2022/09/19 07:54:49;;;;;;;4.07;1.58;;;;;;;18.10;82.63;101460.72;5091033;28;20024;-88
2022/09/19 07:57:15;;;;;;;2.42;1.17;;;;;;;18.23;82.43;101470.19;5091551;28;20026;-87
2022/09/19 07:59:40;;;;;;;2.33;1.33;;;;;;;18.38;81.92;101467.22;5093457;28;20111;-88
2022/09/19 08:02:08;;;;;;;4.25;1.80;;;;;;;18.26;80.97;101473.56;5095707;28;20028;-87
2022/09/19 08:04:34;;;;;;;3.42;1.77;;;;;;;18.33;81.75;101472.91;5094848;28;20040;-86
2022/09/19 08:07:00;;;;;;;2.95;2.00;;;;;;;18.47;80.18;101479.72;5098289;28;20046;-87
2022/09/19 08:09:26;;;;;;;5.03;2.53;;;;;;;18.82;78.91;101478.59;5104851;28;20028;-87
2022/09/19 08:11:51;;;;;;;3.28;2.13;;;;;;;19.14;77.43;101473.13;5093778;28;20024;-88
2022/09/19 08:14:16;;;;;;;3.90;2.30;;;;;;;19.30;74.40;101464.63;5094349;28;20432;-88
2022/09/19 08:16:43;;;;;;;4.70;2.65;;;;;;;19.54;74.18;101477.59;5095596;28;20028;-88
2022/09/19 08:19:09;;;;;;;4.63;2.35;;;;;;;19.81;72.43;101479.66;5095045;28;20039;-88
2022/09/19 08:21:34;;;;;;;4.68;2.25;;;;;;;19.99;70.78;101482.47;5095222;28;20474;-87
2022/09/19 08:24:00;;;;;;;5.20;2.35;;;;;;;19.94;70.98;101483.84;5094855;28;20020;-88
2022/09/19 08:26:26;;;;;;;3.58;1.33;;;;;;;19.93;71.79;101492.84;5095282;28;20024;-88
2022/09/19 08:28:51;;;;;;;2.50;1.58;;;;;;;20.10;72.20;101499.28;5093519;28;20028;-88
2022/09/19 08:31:17;;;;;;;2.53;1.05;;;;;;;19.64;73.04;101503.41;5094393;28;20051;-88
2022/09/19 08:33:42;;;;;;;1.98;0.63;;;;;;;19.57;75.01;101508.47;5094167;28;20153;-87
2022/09/19 08:36:10;;;;;;;2.63;0.55;;;;;;;19.78;75.16;101508.38;5094239;28;20031;-88
2022/09/19 08:38:35;;;;;;;2.55;0.55;;;;;;;20.19;72.59;101504.63;5094138;28;20031;-89
2022/09/19 08:41:36;;;;;;;1.77;0.57;;;;;;;20.32;72.14;101514.16;5094545;28;20023;-89
2022/09/19 08:44:23;;;;;;;2.15;1.10;;;;;;;19.99;71.64;101518.94;5092350;28;20019;-89
2022/09/19 08:47:06;;;;;;;1.17;0.77;;;;;;;20.13;71.88;101521.19;5093101;28;20058;-90
2022/09/19 08:49:38;;;;;;;2.25;1.20;;;;;;;20.35;70.19;101498.72;5091633;28;20138;-89
2022/09/19 08:52:33;;;;;;;2.40;1.13;;;;;;;20.52;69.78;101515.03;5094780;28;20023;-89
2022/09/19 08:55:01;;;;;;;2.95;1.45;;;;;;;20.56;69.50;101524.44;5092513;28;20040;-88
2022/09/19 08:57:33;;;;;;;1.10;0.93;;;;;;;20.73;69.38;101526.38;5100212;28;20052;-89
2022/09/19 09:00:05;;;;;;;3.63;1.50;;;;;;;20.57;71.19;101526.94;5100307;28;20024;-89
2022/09/19 09:02:54;;;;;;;2.50;1.00;;;;;;;20.45;69.44;101519.22;5104086;28;20427;-88
2022/09/19 09:05:47;;;;;;;4.05;1.10;;;;;;;20.83;68.85;101534.38;5106137;28;20086;-88
2022/09/19 09:08:33;;;;;;;3.33;1.27;;;;;;;20.81;68.65;101528.31;5097376;28;20024;-86
2022/09/19 09:11:10;;;;;;;;;;;;;;;21.20;66.35;101528.22;5098074;28;20018;-87
2022/09/19 09:13:52;;;;;;;;;;;;;;;20.82;65.79;101527.34;5100106;28;19920;-89
2022/09/19 09:16:30;;;;;;;;;;;;;;;20.93;66.03;101523.66;5102551;28;19941;-88
2022/09/19 09:19:08;;;;;;;;;;;;;;;20.61;65.55;101530.19;5098779;28;19916;-89
2022/09/19 09:21:41;;;;;;;;;;;;;;;20.80;66.95;101527.50;5098529;28;19916;-89
2022/09/19 09:24:16;;;;;;;;;;;;;;;21.44;65.20;101522.38;5097666;28;20414;-89
2022/09/19 09:26:43;;;;;;;;;;;;;;;20.48;66.48;101522.47;5097354;28;19941;-88
2022/09/19 09:29:11;;;;;;;;;;;;;;;21.19;65.69;101521.22;5097680;28;19973;-89
2022/09/19 09:31:57;;;;;;;;;;;;;;;21.39;64.93;101527.31;5098091;28;19920;-87
2022/09/19 09:34:27;;;;;;;;;;;;;;;21.82;62.79;101519.63;5095011;28;19919;-89
2022/09/19 09:37:03;;;;;;;;;;;;;;;22.13;61.99;101525.47;5092766;28;20331;-88
2022/09/19 09:39:58;;;;;;;;;;;;;;;21.89;62.42;101534.91;5092448;28;20402;-86
2022/09/19 09:42:26;;;;;;;;;;;;;;;22.23;61.23;101530.75;5093919;28;19982;-88
2022/09/19 09:44:58;;;;;;;;;;;;;;;22.31;61.10;101537.03;5093943;28;19916;-88
2022/09/19 09:47:44;;;;;;;;;;;;;;;22.58;59.27;101533.41;5094130;28;21163;-88
2022/09/19 09:50:28;;;;;;;;;;;;;;;23.06;57.87;101531.25;5094157;28;19915;-89
2022/09/19 09:53:17;;;;;;;;;;;;;;;22.68;59.51;101529.81;5093711;28;20384;-88
2022/09/19 09:58:49;;;;;;;;;;;;;;;22.86;58.66;101530.59;5094049;28;19969;-89
2022/09/19 10:04:38;;;;;;;3.15;0.98;;;;;;;23.23;57.32;101532.19;5093862;28;20077;-88
2022/09/19 10:07:13;;;;;;;2.72;0.77;;;;;;;23.51;56.42;101529.28;5090477;28;20039;-90
2022/09/19 10:09:53;;;;;;;1.48;0.85;;;;;;;23.75;56.01;101526.66;5090457;28;20086;-88
2022/09/19 10:12:24;;;;;;;5.22;0.90;;;;;;;23.97;55.79;101528.94;5090027;28;20036;-90
2022/09/19 10:14:54;;;;;;;2.28;0.90;;;;;;;24.12;55.33;101525.44;5089895;28;20017;-88
2022/09/19 10:17:22;;;;;;;4.10;0.88;;;;;;;24.35;53.99;101533.69;5092884;28;20115;-89
2022/09/19 10:20:00;;;;;;;3.90;0.80;;;;;;;25.06;51.63;101531.28;5093041;28;20020;-89
2022/09/19 10:22:25;;;;;;;1.30;0.60;;;;;;;24.66;52.98;101526.81;5091659;28;20458;-88
2022/09/19 10:24:59;;;;;;;2.88;0.63;;;;;;;24.36;53.21;101539.88;5093263;28;20103;-88
2022/09/19 10:27:31;;;;;;;2.20;0.73;;;;;;;24.37;52.75;101535.34;5092672;28;20035;-88
2022/09/19 10:29:58;;;;;;;3.25;0.60;;;;;;;25.24;51.36;101532.94;5093022;28;20037;-91
2022/09/19 10:32:34;;;;;;;2.70;0.65;;;;;;;24.92;51.22;101532.81;5092918;28;20429;-91
2022/09/19 10:35:00;;;;;;;2.90;1.02;;;;;;;25.16;50.91;101543.66;5093867;28;20061;-92
2022/09/19 10:37:28;;;;;;;2.30;0.80;;;;;;;24.67;52.29;101539.25;5090715;28;20036;-91
2022/09/19 10:40:01;;;;;;;;;;;;;;;24.77;52.11;101539.91;5088089;28;20028;-90
2022/09/19 10:42:32;;;;;;;;;;;;;;;25.07;51.92;101540.16;5088840;28;19923;-90
2022/09/19 10:44:59;;;;;;;;;;;;;;;25.12;51.60;101540.50;5093176;28;19963;-89
2022/09/19 10:47:27;;;;;;;;;;;;;;;24.82;51.23;101537.56;5089767;28;19916;-88
2022/09/19 10:49:58;;;;;;;;;;;;;;;25.08;50.96;101539.16;5090791;28;19945;-90
2022/09/19 10:52:30;;;;;;;;;;;;;;;25.16;51.13;101536.47;5091603;28;19975;-92
2022/09/19 10:54:58;;;;;;;;;;;;;;;25.26;50.17;101534.44;5089010;28;20019;-91
2022/09/19 10:57:37;;;;;;;;;;;;;;;25.82;49.17;101531.63;5092755;28;19916;-90
2022/09/19 11:00:04;;;;;;;;;;;;;;;26.70;47.01;101524.13;5091000;28;19971;-94
2022/09/19 11:02:31;;;;;;;;;;;;;;;26.40;46.63;101526.72;5090477;28;19927;-91
2022/09/19 11:05:04;;;;;;;;;;;;;;;27.35;45.62;101527.13;5090945;28;19920;-89
2022/09/19 11:07:33;;;;;;;;;;;;;;;27.76;44.14;101523.88;5091700;28;19969;-90
2022/09/19 11:10:04;;;;;;;;;;;;;;;28.18;43.64;101519.56;5091475;28;19974;-90
2022/09/19 11:12:35;;;;;;;1.45;1.15;;;;;;;27.98;43.95;101512.13;5090956;28;20007;-88
2022/09/19 11:15:02;;;;;;;;;;;;;;;27.63;44.28;101522.72;5091182;28;20027;-90
2022/09/19 11:17:31;;;;;;;;;;;;;;;28.21;42.84;101517.31;5090801;28;19920;-89
2022/09/19 11:20:06;;;;;;;;;;;;;;;29.17;41.69;101511.38;5091067;28;19923;-89
2022/09/19 11:22:46;;;;;;;;;;;;;;;29.24;40.84;101509.53;5091358;28;19920;-91
2022/09/19 11:25:12;;;;;;;;;;;;;;;29.65;39.74;101507.81;5092117;28;19912;-92
2022/09/19 11:27:55;;;;;;;;;;;;;;;30.34;38.19;101506.72;5092605;28;19923;-91
2022/09/19 11:30:23;;;;;;;;;;;;;;;29.23;40.20;101510.59;5091217;28;19916;-91
2022/09/19 11:32:56;;;;;;;;;;;;;;;29.21;40.12;101506.41;5091053;28;20285;-93
2022/09/19 11:35:32;;;;;;;;;;;;;;;29.72;39.06;101495.19;5091399;28;20438;-91
2022/09/19 11:38:06;;;;;;;;;;;;;;;30.15;38.21;101502.09;5092523;28;19977;-91
2022/09/19 11:40:44;;;;;;;;;;;;;;;30.84;38.36;101495.38;5092943;28;19912;-91
2022/09/19 11:43:15;;;;;;;;;;;;;;;32.09;35.73;101500.50;5094748;28;19939;-91
2022/09/19 11:46:04;;;;;;;;;;;;;;;31.35;34.67;101497.31;5092661;28;19977;-92
2022/09/19 11:48:32;;;;;;;;;;;;;;;29.60;37.51;101492.22;5094836;28;19923;-92
2022/09/19 11:51:16;;;;;;;;;;;;;;;29.03;39.63;101493.41;5092481;28;20014;-91
2022/09/19 11:53:44;;;;;;;;;;;;;;;30.16;37.43;101490.25;5092458;28;19923;-91
2022/09/19 11:56:19;;;;;;;;;;;;;;;30.70;37.03;101478.31;5095889;28;19916;-92
2022/09/19 11:59:02;;;;;;;;;;;;;;;31.80;35.45;101483.75;5099350;28;19970;-91
2022/09/19 12:01:28;;;;;;;;;;;;;;;31.84;34.97;101478.72;5092263;28;20373;-91
2022/09/19 12:04:11;;;;;;;;;;;;;;;31.63;34.54;101485.31;5091659;28;19972;-92